Terminal Aerodrome Forecast
Issued by NWS North Platte, NE

Home | Current Version | Previous Version | Graphics & Text | Print | Product List | Glossary On
Versions: 1 2 3 4 5 6 7 8 9 10 11 12 13 14 15 16 17 18 19 20 21 22 23 24 25 26 27 28
492
FTUS43 KLBF 250549 AAA
TAFVTN
TAF AMD
KVTN 250549Z 2506/2606 36008KT 5SM BR VCSH OVC009
     FM250900 36009KT P6SM VCSH OVC007
     FM251200 35008KT P6SM VCSH OVC003
     FM251600 36009KT P6SM OVC008=

USA.gov is the U.S. government's official web portal to all federal, state and local government web resources and services.